Time;durP1;ratioP1;P1;durP2;ratioP2;P2;SDS_P1;SDS_P2;PMS_P1;PMS_P2;Temp;Humidity;BMP_temperature;BMP_pressure;BME280_temperature;BME280_humidity;BME280_pressure;Samples;Min_cycle;Max_cycle;Signal;HPM_P1;HPM_P2
2022/02/26 00:00:49;;;;;;;0.63;0.50;;;;;;;;;;5073628;28;20021;-39
2022/02/26 00:03:15;;;;;;;0.77;0.45;;;;;;;;;;5073323;28;20583;-39
2022/02/26 00:05:41;;;;;;;0.60;0.57;;;;;;;;;;5073529;28;20366;-39
2022/02/26 00:08:06;;;;;;;0.73;0.73;;;;;;;;;;5073481;28;20090;-39
2022/02/26 00:10:32;;;;;;;0.50;0.50;;;;;;;;;;5073130;28;20013;-39
2022/02/26 00:12:57;;;;;;;1.67;0.90;;;;;;;;;;5073175;28;20112;-39
2022/02/26 00:15:23;;;;;;;0.63;0.50;;;;;;;;;;5073310;28;20028;-39
2022/02/26 00:17:49;;;;;;;2.15;0.70;;;;;;;;;;5073043;28;20039;-39
2022/02/26 00:20:14;;;;;;;0.63;0.63;;;;;;;;;;5073366;28;20032;-39
2022/02/26 00:22:40;;;;;;;0.28;0.28;;;;;;;;;;5072735;28;20028;-39
2022/02/26 00:25:06;;;;;;;1.13;0.70;;;;;;;;;;5055081;28;20024;-40
2022/02/26 00:27:31;;;;;;;0.40;0.40;;;;;;;;;;5073151;28;20071;-39
2022/02/26 00:29:57;;;;;;;1.23;0.70;;;;;;;;;;5072825;28;20020;-39
2022/02/26 00:32:22;;;;;;;2.55;0.50;;;;;;;;;;5072723;28;20052;-39
2022/02/26 00:34:48;;;;;;;0.30;0.30;;;;;;;;;;5072961;28;20035;-40
2022/02/26 00:37:14;;;;;;;0.47;0.45;;;;;;;;;;5072706;28;20033;-39
2022/02/26 00:39:39;;;;;;;0.75;0.73;;;;;;;;;;5072504;28;20044;-39
2022/02/26 00:42:06;;;;;;;0.65;0.55;;;;;;;;;;5072286;28;20043;-39
2022/02/26 00:44:32;;;;;;;0.80;0.55;;;;;;;;;;5072397;28;20105;-39
2022/02/26 00:46:58;;;;;;;0.60;0.40;;;;;;;;;;5072454;28;20079;-39
2022/02/26 00:52:08;;;;;;;4.25;0.73;;;;;;;;;;5072566;28;20028;-39
2022/02/26 00:54:34;;;;;;;0.93;0.85;;;;;;;;;;5072233;28;20502;-39
2022/02/26 00:56:59;;;;;;;0.73;0.73;;;;;;;;;;5072280;28;20025;-39
2022/02/26 00:59:25;;;;;;;1.45;0.60;;;;;;;;;;5072212;28;20032;-42
2022/02/26 01:01:50;;;;;;;0.82;0.55;;;;;;;;;;5072398;28;20021;-39
2022/02/26 01:04:16;;;;;;;0.65;0.50;;;;;;;;;;5072142;28;20048;-40
2022/02/26 01:06:41;;;;;;;0.50;0.50;;;;;;;;;;5071975;28;20033;-40
2022/02/26 01:09:07;;;;;;;2.03;0.70;;;;;;;;;;5070769;28;20071;-39
2022/02/26 01:11:33;;;;;;;1.05;0.50;;;;;;;;;;5071941;28;20487;-39
2022/02/26 01:13:58;;;;;;;0.50;0.50;;;;;;;;;;5071981;28;20087;-39
2022/02/26 01:16:24;;;;;;;0.57;0.57;;;;;;;;;;5071904;28;20044;-39
2022/02/26 01:18:51;;;;;;;1.85;0.60;;;;;;;;;;5072055;28;20016;-39
2022/02/26 01:21:17;;;;;;;2.78;0.40;;;;;;;;;;5071788;28;20036;-39
2022/02/26 01:23:43;;;;;;;0.65;0.50;;;;;;;;;;5071945;28;20021;-39
2022/02/26 01:26:08;;;;;;;1.75;0.30;;;;;;;;;;5072030;28;20117;-39
2022/02/26 01:28:34;;;;;;;0.60;0.50;;;;;;;;;;5070291;28;20390;-39
2022/02/26 01:31:02;;;;;;;1.42;0.50;;;;;;;;;;5071443;28;20032;-39
2022/02/26 01:33:27;;;;;;;1.02;0.45;;;;;;;;;;5071646;28;20070;-39
2022/02/26 01:35:53;;;;;;;0.40;0.40;;;;;;;;;;5071754;28;20060;-39
2022/02/26 01:38:18;;;;;;;2.05;0.47;;;;;;;;;;5071600;28;20463;-39
2022/02/26 01:40:44;;;;;;;0.65;0.57;;;;;;;;;;5071741;28;20121;-39
2022/02/26 01:43:09;;;;;;;0.60;0.52;;;;;;;;;;5071446;28;20028;-39
2022/02/26 01:45:35;;;;;;;0.55;0.55;;;;;;;;;;5071505;28;20040;-39
2022/02/26 01:48:00;;;;;;;0.52;0.40;;;;;;;;;;5071330;28;20083;-39
2022/02/26 01:50:26;;;;;;;0.30;0.30;;;;;;;;;;5071738;28;20052;-39
2022/02/26 01:52:52;;;;;;;0.30;0.30;;;;;;;;;;5070555;28;20520;-39
2022/02/26 01:55:17;;;;;;;0.50;0.45;;;;;;;;;;5071622;28;20017;-39
2022/02/26 01:57:42;;;;;;;0.40;0.40;;;;;;;;;;5071257;28;20372;-39
2022/02/26 02:00:09;;;;;;;0.57;0.50;;;;;;;;;;5071618;28;20029;-39
2022/02/26 02:02:35;;;;;;;0.32;0.30;;;;;;;;;;5071434;28;20024;-39
2022/02/26 02:05:00;;;;;;;0.80;0.50;;;;;;;;;;5071347;28;20032;-39
2022/02/26 02:07:27;;;;;;;0.73;0.60;;;;;;;;;;5071170;28;20031;-39
2022/02/26 02:09:52;;;;;;;0.50;0.45;;;;;;;;;;5071037;28;20028;-39
2022/02/26 02:12:17;;;;;;;0.60;0.60;;;;;;;;;;5071269;28;20016;-39
2022/02/26 02:14:44;;;;;;;0.80;0.50;;;;;;;;;;5071067;28;20040;-39
2022/02/26 02:17:09;;;;;;;0.25;0.25;;;;;;;;;;5071192;28;20386;-39
2022/02/26 02:19:35;;;;;;;0.68;0.35;;;;;;;;;;5071015;28;20033;-39
2022/02/26 02:22:04;;;;;;;1.42;0.50;;;;;;;;;;5071057;28;20012;-39
2022/02/26 02:24:30;;;;;;;1.55;0.75;;;;;;;;;;5071403;28;20086;-39
2022/02/26 02:26:56;;;;;;;1.65;0.70;;;;;;;;;;5070973;28;20020;-39
2022/02/26 02:29:22;;;;;;;1.92;0.50;;;;;;;;;;5071033;28;20045;-39
2022/02/26 02:31:47;;;;;;;0.60;0.57;;;;;;;;;;5070867;28;20048;-39
2022/02/26 02:34:12;;;;;;;0.35;0.30;;;;;;;;;;5071326;28;20028;-39
2022/02/26 02:36:44;;;;;;;0.60;0.60;;;;;;;;;;5071001;28;20463;-39
2022/02/26 02:39:13;;;;;;;0.47;0.47;;;;;;;;;;5071003;28;20028;-39
2022/02/26 02:41:40;;;;;;;1.00;0.40;;;;;;;;;;5071155;28;20557;-39
2022/02/26 02:44:06;;;;;;;2.05;0.50;;;;;;;;;;5069637;28;20111;-39
2022/02/26 02:46:32;;;;;;;0.70;0.50;;;;;;;;;;5070834;28;20107;-39
2022/02/26 02:48:57;;;;;;;1.85;0.70;;;;;;;;;;5070706;28;20037;-39
2022/02/26 02:51:23;;;;;;;0.73;0.57;;;;;;;;;;5070776;28;20131;-39
2022/02/26 02:53:48;;;;;;;0.50;0.50;;;;;;;;;;5070951;28;20040;-39
2022/02/26 02:56:14;;;;;;;1.08;0.60;;;;;;;;;;5071105;28;20035;-39
2022/02/26 02:58:39;;;;;;;1.00;0.70;;;;;;;;;;5070965;28;20429;-39
2022/02/26 03:01:05;;;;;;;0.55;0.55;;;;;;;;;;5071063;28;20066;-39
2022/02/26 03:03:30;;;;;;;0.82;0.65;;;;;;;;;;5071778;28;20378;-39
2022/02/26 03:05:56;;;;;;;1.27;0.45;;;;;;;;;;5074283;28;20028;-39
2022/02/26 03:08:24;;;;;;;0.43;0.40;;;;;;;;;;5074584;28;20040;-39
2022/02/26 03:10:53;;;;;;;0.60;0.50;;;;;;;;;;5074186;28;20047;-39
2022/02/26 03:13:20;;;;;;;0.57;0.50;;;;;;;;;;5074335;28;20044;-39
2022/02/26 03:15:46;;;;;;;0.90;0.80;;;;;;;;;;5074263;28;20380;-45
2022/02/26 03:18:11;;;;;;;0.98;0.63;;;;;;;;;;5074497;28;20051;-40
2022/02/26 03:20:37;;;;;;;4.90;0.65;;;;;;;;;;5074275;28;20686;-39
2022/02/26 03:23:03;;;;;;;1.05;0.60;;;;;;;;;;5074100;28;20178;-39
2022/02/26 03:25:28;;;;;;;1.52;0.90;;;;;;;;;;5074293;28;20111;-39
2022/02/26 03:27:55;;;;;;;3.80;1.20;;;;;;;;;;5073819;28;20032;-40
2022/02/26 03:30:20;;;;;;;1.80;0.35;;;;;;;;;;5074023;28;20032;-39
2022/02/26 03:32:46;;;;;;;1.10;0.70;;;;;;;;;;5073671;28;20060;-39
2022/02/26 03:35:11;;;;;;;1.75;1.08;;;;;;;;;;5072863;28;20039;-39
2022/02/26 03:37:37;;;;;;;0.43;0.43;;;;;;;;;;5073899;28;20623;-39
2022/02/26 03:40:06;;;;;;;1.27;0.60;;;;;;;;;;5073817;28;20078;-39
2022/02/26 03:42:31;;;;;;;1.48;0.75;;;;;;;;;;5074002;28;20032;-39
2022/02/26 03:44:57;;;;;;;1.48;0.50;;;;;;;;;;5073925;28;20039;-39
2022/02/26 03:47:23;;;;;;;0.93;0.60;;;;;;;;;;5073912;28;20471;-39
2022/02/26 03:49:49;;;;;;;3.60;1.05;;;;;;;;;;5073616;28;20086;-39
2022/02/26 03:52:15;;;;;;;0.68;0.63;;;;;;;;;;5073487;28;20370;-39
2022/02/26 03:54:41;;;;;;;2.13;1.23;;;;;;;;;;5073458;28;20074;-39
2022/02/26 03:57:07;;;;;;;0.52;0.52;;;;;;;;;;5073689;28;20029;-39
2022/02/26 03:59:32;;;;;;;1.05;0.57;;;;;;;;;;5073479;28;20043;-39
2022/02/26 04:01:57;;;;;;;2.92;0.45;;;;;;;;;;5073403;28;20078;-39
2022/02/26 04:04:23;;;;;;;0.85;0.57;;;;;;;;;;5073320;28;20020;-39
2022/02/26 04:06:50;;;;;;;2.60;0.65;;;;;;;;;;5073361;28;20037;-39
2022/02/26 04:09:16;;;;;;;2.00;1.00;;;;;;;;;;5073293;28;20040;-39
2022/02/26 04:11:41;;;;;;;2.28;0.80;;;;;;;;;;5073272;28;20029;-39
2022/02/26 04:14:07;;;;;;;0.35;0.35;;;;;;;;;;5073489;28;20020;-39
2022/02/26 04:16:32;;;;;;;0.35;0.35;;;;;;;;;;5072418;28;20441;-39
2022/02/26 04:18:58;;;;;;;2.33;0.95;;;;;;;;;;5073047;28;20112;-39
2022/02/26 04:21:25;;;;;;;0.68;0.68;;;;;;;;;;5073339;28;20029;-39
2022/02/26 04:23:51;;;;;;;0.47;0.47;;;;;;;;;;5072803;28;20099;-39
2022/02/26 04:26:16;;;;;;;1.30;0.60;;;;;;;;;;5072999;28;20028;-39
2022/02/26 04:28:41;;;;;;;2.08;0.50;;;;;;;;;;5072922;28;20487;-39
2022/02/26 04:31:07;;;;;;;0.75;0.40;;;;;;;;;;5072843;28;20028;-39
2022/02/26 04:33:32;;;;;;;0.30;0.30;;;;;;;;;;5073111;28;20552;-39
2022/02/26 04:35:59;;;;;;;0.90;0.35;;;;;;;;;;5054773;28;20040;-39
2022/02/26 04:38:25;;;;;;;1.95;0.50;;;;;;;;;;5072938;28;20020;-39
2022/02/26 04:40:50;;;;;;;3.03;0.90;;;;;;;;;;5072467;28;20036;-39
2022/02/26 04:43:16;;;;;;;1.60;0.73;;;;;;;;;;5072679;28;20024;-39
2022/02/26 04:45:42;;;;;;;2.17;0.68;;;;;;;;;;5072666;28;20475;-39
2022/02/26 04:48:07;;;;;;;0.95;0.82;;;;;;;;;;5072368;28;20426;-39
2022/02/26 04:50:32;;;;;;;1.85;0.73;;;;;;;;;;5072320;28;20033;-39
2022/02/26 04:52:58;;;;;;;1.55;1.05;;;;;;;;;;5072570;28;20078;-39
2022/02/26 04:55:23;;;;;;;0.95;0.88;;;;;;;;;;5072341;28;20059;-39
2022/02/26 04:57:49;;;;;;;0.65;0.65;;;;;;;;;;5072278;28;20119;-39
2022/02/26 05:00:15;;;;;;;0.68;0.40;;;;;;;;;;5072147;28;20551;-39
2022/02/26 05:02:40;;;;;;;0.52;0.52;;;;;;;;;;5072285;28;20016;-39
2022/02/26 05:05:06;;;;;;;0.30;0.30;;;;;;;;;;5072496;28;20482;-39
2022/02/26 05:07:32;;;;;;;0.77;0.70;;;;;;;;;;5071872;28;20036;-39
2022/02/26 05:09:57;;;;;;;0.38;0.38;;;;;;;;;;5072316;28;20036;-39
2022/02/26 05:12:23;;;;;;;0.52;0.40;;;;;;;;;;5072190;28;20511;-39
2022/02/26 05:14:49;;;;;;;0.32;0.32;;;;;;;;;;5070595;28;20036;-39
2022/02/26 05:17:14;;;;;;;5.53;1.00;;;;;;;;;;5071996;28;20025;-39
2022/02/26 05:19:40;;;;;;;3.67;0.80;;;;;;;;;;5072018;28;20036;-39
2022/02/26 05:22:05;;;;;;;3.08;0.55;;;;;;;;;;5072062;28;20025;-39
2022/02/26 05:24:31;;;;;;;9.07;1.30;;;;;;;;;;5071821;28;20036;-39
2022/02/26 05:26:56;;;;;;;2.00;1.10;;;;;;;;;;5071738;28;20470;-38
2022/02/26 05:29:21;;;;;;;0.65;0.50;;;;;;;;;;5070463;28;20052;-39
2022/02/26 05:31:47;;;;;;;3.05;1.42;;;;;;;;;;5071384;28;20400;-39
2022/02/26 05:34:12;;;;;;;3.40;1.50;;;;;;;;;;5071970;28;20119;-39
2022/02/26 05:36:38;;;;;;;4.55;1.48;;;;;;;;;;5071788;28;20021;-39
2022/02/26 05:39:04;;;;;;;7.82;2.47;;;;;;;;;;5071516;28;20036;-39
2022/02/26 05:41:29;;;;;;;5.97;1.60;;;;;;;;;;5071809;28;20025;-39
2022/02/26 05:43:54;;;;;;;14.15;3.28;;;;;;;;;;5071626;28;20120;-38
2022/02/26 05:46:20;;;;;;;5.38;2.33;;;;;;;;;;5071606;28;20012;-38
2022/02/26 05:48:46;;;;;;;8.88;2.10;;;;;;;;;;5071331;28;20040;-38
2022/02/26 05:51:11;;;;;;;5.28;1.73;;;;;;;;;;5071340;28;20027;-38
2022/02/26 05:53:37;;;;;;;3.33;2.50;;;;;;;;;;5071356;28;20028;-39
2022/02/26 05:56:02;;;;;;;6.60;2.13;;;;;;;;;;5071317;28;20075;-38
2022/02/26 05:58:28;;;;;;;9.07;2.78;;;;;;;;;;5071324;28;20028;-39
2022/02/26 06:00:55;;;;;;;4.65;2.30;;;;;;;;;;5071520;28;20013;-39
2022/02/26 06:03:21;;;;;;;7.85;2.90;;;;;;;;;;5071349;28;20059;-38
2022/02/26 06:05:46;;;;;;;12.07;3.70;;;;;;;;;;5071174;28;20056;-39
2022/02/26 06:08:12;;;;;;;8.80;2.42;;;;;;;;;;5071543;28;20062;-39
2022/02/26 06:10:37;;;;;;;3.90;2.00;;;;;;;;;;5071164;28;20505;-38
2022/02/26 06:13:03;;;;;;;10.02;1.90;;;;;;;;;;5071157;28;20028;-38
2022/02/26 06:15:28;;;;;;;6.40;2.63;;;;;;;;;;5071213;28;20031;-38
2022/02/26 06:17:54;;;;;;;11.82;2.17;;;;;;;;;;5069946;28;20029;-39
2022/02/26 06:20:19;;;;;;;5.70;1.88;;;;;;;;;;5071449;28;20025;-38
2022/02/26 06:22:45;;;;;;;5.95;1.65;;;;;;;;;;5071282;28;20052;-38
2022/02/26 06:25:10;;;;;;;5.32;2.45;;;;;;;;;;5071413;28;20024;-38
2022/02/26 06:27:37;;;;;;;8.13;2.65;;;;;;;;;;5071277;28;20062;-39
2022/02/26 06:30:03;;;;;;;15.32;3.13;;;;;;;;;;5071009;28;20375;-39
2022/02/26 06:32:28;;;;;;;8.07;2.28;;;;;;;;;;5070905;28;20052;-39
2022/02/26 06:34:54;;;;;;;6.40;2.15;;;;;;;;;;5070944;28;20025;-39
2022/02/26 06:37:19;;;;;;;4.38;1.85;;;;;;;;;;5071021;28;20471;-39
2022/02/26 06:39:45;;;;;;;10.57;2.22;;;;;;;;;;5073991;28;20021;-39
2022/02/26 06:42:10;;;;;;;8.13;2.35;;;;;;;;;;5074821;28;20390;-39
2022/02/26 06:44:36;;;;;;;9.68;2.78;;;;;;;;;;5075164;28;20055;-39
2022/02/26 06:47:01;;;;;;;8.88;2.85;;;;;;;;;;5074634;28;20056;-39
2022/02/26 06:49:27;;;;;;;11.05;1.70;;;;;;;;;;5075005;28;20037;-39
2022/02/26 06:51:52;;;;;;;13.98;2.05;;;;;;;;;;5073629;28;20391;-39
2022/02/26 06:54:20;;;;;;;11.95;3.42;;;;;;;;;;5074503;28;20464;-39
2022/02/26 06:56:46;;;;;;;13.02;2.38;;;;;;;;;;5073393;28;20416;-39
2022/02/26 06:59:11;;;;;;;4.03;2.08;;;;;;;;;;5073191;28;20052;-39
2022/02/26 07:01:37;;;;;;;12.43;2.65;;;;;;;;;;5074717;28;20501;-40
2022/02/26 07:04:02;;;;;;;16.88;2.33;;;;;;;;;;5074485;28;20025;-39
2022/02/26 07:06:27;;;;;;;11.52;2.17;;;;;;;;;;5074504;28;20043;-39
2022/02/26 07:08:53;;;;;;;14.88;3.45;;;;;;;;;;5074426;28;20028;-39
2022/02/26 07:11:19;;;;;;;5.22;2.95;;;;;;;;;;5074630;28;20025;-39
2022/02/26 07:13:44;;;;;;;6.25;2.40;;;;;;;;;;5074521;28;20455;-39
2022/02/26 07:16:10;;;;;;;6.63;2.90;;;;;;;;;;5074282;28;20075;-39
2022/02/26 07:18:35;;;;;;;3.60;0.93;;;;;;;;;;5074258;28;20017;-39
2022/02/26 07:21:00;;;;;;;7.13;1.23;;;;;;;;;;5074113;28;20040;-39
2022/02/26 07:23:26;;;;;;;4.28;1.48;;;;;;;;;;5074087;28;20012;-39
2022/02/26 07:25:51;;;;;;;2.28;1.10;;;;;;;;;;5074282;28;20036;-39
2022/02/26 07:28:17;;;;;;;3.13;1.40;;;;;;;;;;5074086;28;20510;-39
2022/02/26 07:30:43;;;;;;;8.63;2.53;;;;;;;;;;5073825;28;20039;-39
2022/02/26 07:33:09;;;;;;;2.72;0.93;;;;;;;;;;5073929;28;20312;-39
2022/02/26 07:35:35;;;;;;;5.25;1.50;;;;;;;;;;5073992;28;20060;-39
2022/02/26 07:38:02;;;;;;;6.57;1.98;;;;;;;;;;5073601;28;20032;-39
2022/02/26 07:40:28;;;;;;;3.85;0.98;;;;;;;;;;5073845;28;20094;-39
2022/02/26 07:42:53;;;;;;;5.00;1.52;;;;;;;;;;5073691;28;20036;-39
2022/02/26 07:45:19;;;;;;;3.30;1.20;;;;;;;;;;5073764;28;20033;-39
2022/02/26 07:47:44;;;;;;;6.95;1.92;;;;;;;;;;5073622;28;20119;-39
2022/02/26 07:50:10;;;;;;;5.07;1.08;;;;;;;;;;5072528;28;20067;-39
2022/02/26 07:52:35;;;;;;;3.70;1.67;;;;;;;;;;5073576;28;20021;-39
2022/02/26 07:55:02;;;;;;;8.48;1.05;;;;;;;;;;5073614;28;20028;-39
2022/02/26 07:57:28;;;;;;;7.30;1.00;;;;;;;;;;5073520;28;20070;-39
2022/02/26 07:59:54;;;;;;;4.38;0.88;;;;;;;;;;5073691;28;20024;-39
2022/02/26 08:02:19;;;;;;;1.52;1.42;;;;;;;;;;5073365;28;20067;-41
2022/02/26 08:04:45;;;;;;;2.47;0.90;;;;;;;;;;5073322;28;20037;-39
2022/02/26 08:07:12;;;;;;;2.10;0.95;;;;;;;;;;5072454;28;20019;-39
2022/02/26 08:09:37;;;;;;;2.78;1.15;;;;;;;;;;5073475;28;20055;-39
2022/02/26 08:12:03;;;;;;;0.70;0.70;;;;;;;;;;5073071;28;20452;-39
2022/02/26 08:14:28;;;;;;;0.70;0.70;;;;;;;;;;5073533;28;20032;-39
2022/02/26 08:16:54;;;;;;;0.95;0.88;;;;;;;;;;5073381;28;20055;-40
2022/02/26 08:19:19;;;;;;;1.05;0.95;;;;;;;;;;5073149;28;20020;-39
2022/02/26 08:21:45;;;;;;;0.32;0.32;;;;;;;;;;5073018;28;20138;-39
2022/02/26 08:24:12;;;;;;;2.00;1.20;;;;;;;;;;5073330;28;20463;-39
2022/02/26 08:26:38;;;;;;;0.75;0.60;;;;;;;;;;5073176;28;20397;-39
2022/02/26 08:29:04;;;;;;;3.05;1.30;;;;;;;;;;5072731;28;20050;-39
2022/02/26 08:31:29;;;;;;;1.58;1.13;;;;;;;;;;5072675;28;20052;-39
2022/02/26 08:33:55;;;;;;;1.50;0.70;;;;;;;;;;5072714;28;20036;-39
2022/02/26 08:36:21;;;;;;;2.40;0.90;;;;;;;;;;5072795;28;20064;-39
2022/02/26 08:38:47;;;;;;;0.80;0.40;;;;;;;;;;5072699;28;20024;-39
2022/02/26 08:41:12;;;;;;;1.50;0.50;;;;;;;;;;5072570;28;20020;-39
2022/02/26 08:43:38;;;;;;;3.35;0.68;;;;;;;;;;5072705;28;20450;-39
2022/02/26 08:46:03;;;;;;;0.28;0.28;;;;;;;;;;5072711;28;20063;-39
2022/02/26 08:48:29;;;;;;;4.40;0.47;;;;;;;;;;5072382;28;20143;-39
2022/02/26 08:50:54;;;;;;;0.32;0.30;;;;;;;;;;5072607;28;20035;-39
2022/02/26 08:53:20;;;;;;;1.08;0.50;;;;;;;;;;5072342;28;20107;-39
2022/02/26 08:55:45;;;;;;;0.52;0.47;;;;;;;;;;5072466;28;20073;-39
2022/02/26 08:58:11;;;;;;;0.77;0.17;;;;;;;;;;5072229;28;20440;-39
2022/02/26 09:00:37;;;;;;;0.20;0.20;;;;;;;;;;5072704;28;20027;-39
2022/02/26 09:03:03;;;;;;;1.95;0.98;;;;;;;;;;5072190;28;20032;-39
2022/02/26 09:05:29;;;;;;;0.43;0.43;;;;;;;;;;5072179;28;20053;-39
2022/02/26 09:07:55;;;;;;;0.25;0.20;;;;;;;;;;5071986;28;20032;-39
2022/02/26 09:10:20;;;;;;;0.70;0.40;;;;;;;;;;5071939;28;20035;-39
2022/02/26 09:12:46;;;;;;;0.95;0.30;;;;;;;;;;5072280;28;20025;-39
2022/02/26 09:15:12;;;;;;;0.30;0.30;;;;;;;;;;5072329;28;20105;-40
2022/02/26 09:17:37;;;;;;;0.20;0.20;;;;;;;;;;5071926;28;20028;-39
2022/02/26 09:20:03;;;;;;;1.40;0.70;;;;;;;;;;5071848;28;20378;-39
2022/02/26 09:22:28;;;;;;;0.85;0.50;;;;;;;;;;5071857;28;20223;-40
2022/02/26 09:24:54;;;;;;;0.70;0.70;;;;;;;;;;5071574;28;20024;-39
2022/02/26 09:27:20;;;;;;;0.20;0.20;;;;;;;;;;5071842;28;20119;-39
2022/02/26 09:29:46;;;;;;;2.15;0.40;;;;;;;;;;5071661;28;20108;-39
2022/02/26 09:32:11;;;;;;;0.50;0.40;;;;;;;;;;5071438;28;20044;-39
2022/02/26 09:34:37;;;;;;;0.73;0.47;;;;;;;;;;5072022;28;20060;-39
2022/02/26 09:37:03;;;;;;;1.17;0.25;;;;;;;;;;5071567;28;20056;-39
2022/02/26 09:39:28;;;;;;;0.28;0.20;;;;;;;;;;5071621;28;20039;-39
2022/02/26 09:41:55;;;;;;;0.40;0.32;;;;;;;;;;5071761;28;20029;-39
2022/02/26 09:44:20;;;;;;;0.22;0.22;;;;;;;;;;5071566;28;20052;-39
2022/02/26 09:46:47;;;;;;;0.30;0.30;;;;;;;;;;5071534;28;20067;-39
2022/02/26 09:49:12;;;;;;;1.63;0.40;;;;;;;;;;5071689;28;20111;-39
2022/02/26 09:51:39;;;;;;;2.45;0.30;;;;;;;;;;5071490;28;20535;-39
2022/02/26 09:54:04;;;;;;;1.95;0.25;;;;;;;;;;5071590;28;20024;-39
2022/02/26 09:56:30;;;;;;;0.32;0.20;;;;;;;;;;5071719;28;20772;-39
2022/02/26 09:58:55;;;;;;;0.22;0.20;;;;;;;;;;5071299;28;20374;-39
2022/02/26 10:01:21;;;;;;;0.20;0.20;;;;;;;;;;5071287;28;20028;-39
2022/02/26 10:03:46;;;;;;;0.20;0.20;;;;;;;;;;5071575;28;20033;-39
2022/02/26 10:06:16;;;;;;;0.57;0.38;;;;;;;;;;5069998;28;20044;-39
2022/02/26 10:08:41;;;;;;;0.40;0.40;;;;;;;;;;5071249;28;20529;-39
2022/02/26 10:11:19;;;;;;;0.80;0.40;;;;;;;;;;5071135;28;20048;-39
2022/02/26 10:13:45;;;;;;;0.63;0.25;;;;;;;;;;5070694;28;20024;-40
2022/02/26 10:16:10;;;;;;;0.30;0.30;;;;;;;;;;5071288;28;20478;-39
2022/02/26 10:18:36;;;;;;;0.52;0.20;;;;;;;;;;5071440;28;20109;-39
2022/02/26 10:21:02;;;;;;;0.20;0.20;;;;;;;;;;5071263;28;20013;-39
2022/02/26 10:23:29;;;;;;;0.35;0.32;;;;;;;;;;5071161;28;20150;-39
2022/02/26 10:26:08;;;;;;;0.30;0.20;;;;;;;;;;5069711;28;20021;-39
2022/02/26 10:28:38;;;;;;;3.70;0.30;;;;;;;;;;5071200;28;20037;-39
2022/02/26 10:31:06;;;;;;;0.22;0.22;;;;;;;;;;5070771;28;20085;-39
2022/02/26 10:33:31;;;;;;;0.28;0.28;;;;;;;;;;5071538;28;20052;-39
2022/02/26 10:35:59;;;;;;;0.90;0.40;;;;;;;;;;5070821;28;20025;-39
2022/02/26 10:38:29;;;;;;;0.95;0.30;;;;;;;;;;5071188;28;20042;-39
2022/02/26 10:40:57;;;;;;;0.28;0.20;;;;;;;;;;5070785;28;20479;-39
2022/02/26 10:43:51;;;;;;;0.30;0.30;;;;;;;;;;5070900;28;20036;-39
2022/02/26 10:46:23;;;;;;;0.20;0.20;;;;;;;;;;5058012;28;20368;-39
2022/02/26 10:48:51;;;;;;;0.20;0.20;;;;;;;;;;5070971;28;20046;-39
2022/02/26 10:51:17;;;;;;;0.30;0.30;;;;;;;;;;5069515;28;20021;-39
2022/02/26 10:53:43;;;;;;;0.50;0.30;;;;;;;;;;5070844;28;20032;-39
2022/02/26 10:56:10;;;;;;;0.40;0.40;;;;;;;;;;5069497;28;20031;-39
2022/02/26 10:58:36;;;;;;;0.20;0.20;;;;;;;;;;5071053;28;20070;-39
2022/02/26 11:01:02;;;;;;;0.20;0.20;;;;;;;;;;5070726;28;20455;-39
2022/02/26 11:03:28;;;;;;;0.73;0.28;;;;;;;;;;5070872;28;20123;-39
2022/02/26 11:05:54;;;;;;;0.30;0.22;;;;;;;;;;5070675;28;20116;-39
2022/02/26 11:08:20;;;;;;;0.35;0.30;;;;;;;;;;5070710;28;20041;-39
2022/02/26 11:10:46;;;;;;;0.17;0.17;;;;;;;;;;5070531;28;20043;-39
2022/02/26 11:13:13;;;;;;;0.57;0.40;;;;;;;;;;5070958;28;20036;-39
2022/02/26 11:15:39;;;;;;;0.75;0.52;;;;;;;;;;5070640;28;20040;-39
2022/02/26 11:18:05;;;;;;;0.40;0.20;;;;;;;;;;5070547;28;20066;-39
2022/02/26 11:20:33;;;;;;;0.20;0.20;;;;;;;;;;5070562;28;20051;-39
2022/02/26 11:23:00;;;;;;;0.20;0.20;;;;;;;;;;5070531;28;20052;-39
2022/02/26 11:25:26;;;;;;;1.30;1.20;;;;;;;;;;5073148;28;20067;-39
2022/02/26 11:27:51;;;;;;;0.20;0.20;;;;;;;;;;5073907;28;20064;-39
2022/02/26 11:30:26;;;;;;;0.20;0.20;;;;;;;;;;5074354;28;20070;-39
2022/02/26 11:32:52;;;;;;;0.20;0.20;;;;;;;;;;5073668;28;20052;-39
2022/02/26 11:35:21;;;;;;;0.20;0.20;;;;;;;;;;5074351;28;20040;-39
2022/02/26 11:37:51;;;;;;;0.30;0.25;;;;;;;;;;5074133;28;20124;-39
2022/02/26 11:40:18;;;;;;;0.28;0.28;;;;;;;;;;5074082;28;20029;-39
2022/02/26 11:42:44;;;;;;;0.43;0.30;;;;;;;;;;5074134;28;20042;-39
2022/02/26 11:45:10;;;;;;;0.30;0.20;;;;;;;;;;5073721;28;20471;-39
2022/02/26 11:47:42;;;;;;;0.10;0.10;;;;;;;;;;5073665;28;20025;-39
2022/02/26 11:50:10;;;;;;;0.10;0.10;;;;;;;;;;5073624;28;20056;-40
2022/02/26 11:52:39;;;;;;;0.30;0.20;;;;;;;;;;5073935;28;20016;-39
2022/02/26 11:55:23;;;;;;;0.20;0.20;;;;;;;;;;5073794;28;20447;-39
2022/02/26 11:57:49;;;;;;;0.17;0.17;;;;;;;;;;5073554;28;20070;-39
2022/02/26 12:00:15;;;;;;;0.80;0.20;;;;;;;;;;5073686;28;20131;-39
2022/02/26 12:02:41;;;;;;;0.20;0.20;;;;;;;;;;5073783;28;20025;-39
2022/02/26 12:05:08;;;;;;;0.40;0.40;;;;;;;;;;5073668;28;20029;-39
2022/02/26 12:07:40;;;;;;;0.20;0.17;;;;;;;;;;5073512;28;20491;-39
2022/02/26 12:10:08;;;;;;;0.20;0.20;;;;;;;;;;5073197;28;20505;-39
2022/02/26 12:12:37;;;;;;;0.20;0.20;;;;;;;;;;5073186;28;20020;-39
2022/02/26 12:15:04;;;;;;;0.40;0.40;;;;;;;;;;5073062;28;20379;-39
2022/02/26 12:17:30;;;;;;;0.20;0.20;;;;;;;;;;5073452;28;20020;-39
2022/02/26 12:19:56;;;;;;;0.40;0.30;;;;;;;;;;5073020;28;20040;-39
2022/02/26 12:22:22;;;;;;;0.30;0.30;;;;;;;;;;5073049;28;20360;-39
2022/02/26 12:24:49;;;;;;;1.25;0.30;;;;;;;;;;5072941;28;20119;-39
2022/02/26 12:27:14;;;;;;;0.25;0.25;;;;;;;;;;5072989;28;20054;-39
2022/02/26 12:29:40;;;;;;;0.20;0.20;;;;;;;;;;5072998;28;20036;-39
2022/02/26 12:32:15;;;;;;;0.35;0.35;;;;;;;;;;5072697;28;20404;-39
2022/02/26 12:34:47;;;;;;;0.13;0.13;;;;;;;;;;5072807;28;20028;-39
2022/02/26 12:37:17;;;;;;;0.20;0.20;;;;;;;;;;5072128;28;20094;-39
2022/02/26 12:39:47;;;;;;;0.20;0.20;;;;;;;;;;5073029;28;20036;-39
2022/02/26 12:42:20;;;;;;;0.40;0.40;;;;;;;;;;5072724;28;20060;-39
2022/02/26 12:44:47;;;;;;;0.20;0.20;;;;;;;;;;5072565;28;20036;-39
2022/02/26 12:47:14;;;;;;;0.20;0.20;;;;;;;;;;5072625;28;20008;-42
2022/02/26 12:49:40;;;;;;;0.13;0.13;;;;;;;;;;5072668;28;20050;-39
2022/02/26 12:52:10;;;;;;;1.08;0.28;;;;;;;;;;5072327;28;20051;-39
2022/02/26 12:54:36;;;;;;;0.20;0.20;;;;;;;;;;5072481;28;20132;-39
2022/02/26 12:57:03;;;;;;;1.35;0.20;;;;;;;;;;5071106;28;20020;-39
2022/02/26 12:59:29;;;;;;;0.47;0.30;;;;;;;;;;5072415;28;20123;-39
2022/02/26 13:01:58;;;;;;;0.65;0.32;;;;;;;;;;5072190;28;20044;-39
2022/02/26 13:04:28;;;;;;;3.40;0.25;;;;;;;;;;5072224;28;20090;-39
2022/02/26 13:06:55;;;;;;;0.93;0.40;;;;;;;;;;5072260;28;20029;-39
2022/02/26 13:09:21;;;;;;;0.38;0.30;;;;;;;;;;5072149;28;20041;-39
2022/02/26 13:11:48;;;;;;;1.65;0.40;;;;;;;;;;5072011;28;20505;-40
2022/02/26 13:14:14;;;;;;;0.20;0.20;;;;;;;;;;5072247;28;20020;-39
2022/02/26 13:16:43;;;;;;;0.40;0.30;;;;;;;;;;5072005;28;20471;-39
2022/02/26 13:19:12;;;;;;;0.25;0.25;;;;;;;;;;5071872;28;20470;-39
2022/02/26 13:21:38;;;;;;;0.20;0.20;;;;;;;;;;5072124;28;20528;-39
2022/02/26 13:24:05;;;;;;;0.40;0.40;;;;;;;;;;5071818;28;20016;-39
2022/02/26 13:26:31;;;;;;;0.30;0.30;;;;;;;;;;5071840;28;20033;-39
2022/02/26 13:28:57;;;;;;;0.20;0.20;;;;;;;;;;5071880;28;20038;-39
2022/02/26 13:31:43;;;;;;;0.20;0.20;;;;;;;;;;5071613;28;20364;-39
2022/02/26 13:34:09;;;;;;;0.50;0.30;;;;;;;;;;5071682;28;20591;-39
2022/02/26 13:36:36;;;;;;;0.20;0.20;;;;;;;;;;5071957;28;20028;-39
2022/02/26 13:39:02;;;;;;;0.55;0.55;;;;;;;;;;5070222;28;20032;-39
2022/02/26 13:41:27;;;;;;;0.17;0.17;;;;;;;;;;5071435;28;20035;-39
2022/02/26 13:43:53;;;;;;;0.20;0.20;;;;;;;;;;5071836;28;20044;-39
2022/02/26 13:46:19;;;;;;;0.85;0.40;;;;;;;;;;5071500;28;20375;-39
2022/02/26 13:48:48;;;;;;;0.90;0.43;;;;;;;;;;5070295;28;20499;-39
2022/02/26 13:51:14;;;;;;;2.97;0.57;;;;;;;;;;5071375;28;20027;-39
2022/02/26 13:53:40;;;;;;;0.38;0.20;;;;;;;;;;5071373;28;20547;-40
2022/02/26 13:56:06;;;;;;;0.25;0.25;;;;;;;;;;5071322;28;20016;-39
2022/02/26 13:58:33;;;;;;;0.22;0.22;;;;;;;;;;5071795;28;20044;-39
2022/02/26 14:01:06;;;;;;;0.30;0.30;;;;;;;;;;5071267;28;20024;-39
2022/02/26 14:03:35;;;;;;;0.22;0.22;;;;;;;;;;5071324;28;20181;-39
2022/02/26 14:06:05;;;;;;;0.20;0.20;;;;;;;;;;5071260;28;20036;-39
2022/02/26 14:08:31;;;;;;;0.40;0.35;;;;;;;;;;5071127;28;20045;-39
2022/02/26 14:10:57;;;;;;;0.20;0.20;;;;;;;;;;5071436;28;20013;-39
2022/02/26 14:13:24;;;;;;;0.20;0.20;;;;;;;;;;5071250;28;20523;-39
2022/02/26 14:15:50;;;;;;;0.20;0.20;;;;;;;;;;5071269;28;20025;-39
2022/02/26 14:18:25;;;;;;;0.47;0.17;;;;;;;;;;5071467;28;20035;-39
2022/02/26 14:20:51;;;;;;;0.57;0.57;;;;;;;;;;5069797;28;20035;-39
2022/02/26 14:23:18;;;;;;;0.43;0.43;;;;;;;;;;5071374;28;20040;-39
2022/02/26 14:25:43;;;;;;;0.93;0.22;;;;;;;;;;5071111;28;20025;-39
2022/02/26 14:28:15;;;;;;;0.20;0.20;;;;;;;;;;5070948;28;20032;-39
2022/02/26 14:30:41;;;;;;;0.30;0.30;;;;;;;;;;5071034;28;20052;-39
2022/02/26 14:33:07;;;;;;;1.15;1.05;;;;;;;;;;5070879;28;20048;-39
2022/02/26 14:35:33;;;;;;;0.22;0.22;;;;;;;;;;5071368;28;20040;-39
2022/02/26 14:37:59;;;;;;;0.40;0.38;;;;;;;;;;5071156;28;20024;-39
2022/02/26 14:40:25;;;;;;;0.20;0.20;;;;;;;;;;5070946;28;20502;-39